»·PEaware :: SWA1178 KRNO-KLAX

SWA1178 :: KRNO-KLAX

FLIGHT INFORMATION

Flight Status: Arrived
Operator:
Southwest Airlines
More flights by this operator :: More flights under this callsign
Pilot: John B. (23843)
Aircraft: BOEING 737-900
(B739)
More flights by this aircraft type
Origin: KRNO Reno/Tahoe Intl
United States
Destination: KLAX Los Angeles Intl
United States
More flights between these airports :: More routes between these airports
Route: +PVINE3 CRDDZ FRA J7 REBRG IRNMN2
File this flight plan on PilotEdge
Remarks:
Altitude:
(Current/Filed)
35,000ft
Speed:
(Current/Filed)
450kts
Departed: 12-Mar-19 06:31 PM
Arrived: 12-Mar-19 07:31 PM
Distance/Time
Traveled:
339nm/1:00
Distance/Time
To Go:
Arrived

Flight Plot

Page will automatically refresh every two minutes.

Flight plan parsing failed; only flown route is shown


Map Options




Map Legend


Flown Route
Filed Route
Departure Airport
Arrival Airport
Navaid (VOR, NDB)
Fix

Horizontal Profiles

Position Reports

Time Latitude Longitude Heading Altitude Ground
Speed
12-Mar-19 18:02 39.505994 -119.773393 180 4422ft 0kts
12-Mar-19 18:03 39.505994 -119.773393 180 4422ft 0kts
12-Mar-19 18:05 39.505994 -119.773393 180 4422ft 0kts
12-Mar-19 18:05 39.505994 -119.773393 180 4422ft 0kts
12-Mar-19 18:06 39.505994 -119.773393 180 4422ft 0kts
12-Mar-19 18:07 39.505994 -119.773393 180 4422ft 0kts
12-Mar-19 18:08 39.505994 -119.773393 180 4422ft 0kts
12-Mar-19 18:09 39.505994 -119.773393 180 4422ft 0kts
12-Mar-19 18:10 39.505994 -119.773393 180 4422ft 0kts
12-Mar-19 18:11 39.505994 -119.773393 180 4422ft 0kts
12-Mar-19 18:12 39.505994 -119.773393 180 4422ft 0kts
12-Mar-19 18:13 39.505994 -119.773393 180 4422ft 0kts
12-Mar-19 18:14 39.505994 -119.773393 180 4422ft 0kts
12-Mar-19 18:15 39.506415 -119.773398 170 4422ft 2kts
12-Mar-19 18:16 39.506822 -119.773703 130 4422ft 0kts
12-Mar-19 18:17 39.506821 -119.773702 130 4422ft 0kts
12-Mar-19 18:18 39.506596 -119.773508 143 4422ft 1kts
12-Mar-19 18:19 39.506482 -119.773210 98 4422ft 0kts
12-Mar-19 18:20 39.506470 -119.773028 91 4422ft 3kts
12-Mar-19 18:21 39.506461 -119.772293 90 4422ft 1kts
12-Mar-19 18:22 39.504524 -119.771593 180 4422ft 13kts
12-Mar-19 18:23 39.500431 -119.771610 180 4422ft 14kts
12-Mar-19 18:24 39.496126 -119.771615 181 4422ft 15kts
12-Mar-19 18:25 39.492564 -119.771551 180 4422ft 14kts
12-Mar-19 18:26 39.488063 -119.771628 179 4422ft 17kts
12-Mar-19 18:27 39.484051 -119.771616 164 4422ft 7kts
12-Mar-19 18:28 39.483812 -119.770602 91 4422ft 6kts
12-Mar-19 18:29 39.484033 -119.769375 22 4422ft 8kts
12-Mar-19 18:30 39.507828 -119.769215 1 4701ft 170kts
12-Mar-19 18:31 39.565006 -119.767254 357 6942ft 227kts
12-Mar-19 18:32 39.616149 -119.807713 298 10034ft 231kts
12-Mar-19 18:33 39.646149 -119.887639 298 12238ft 272kts
12-Mar-19 18:34 39.630011 -119.991141 224 13335ft 370kts
12-Mar-19 18:35 39.523639 -120.009692 170 15369ft 419kts
12-Mar-19 18:36 39.408747 -119.977688 172 17867ft 426kts
12-Mar-19 18:37 39.289790 -119.949457 176 19703ft 442kts
12-Mar-19 18:38 39.165585 -119.928805 177 21370ft 459kts
12-Mar-19 18:39 39.037120 -119.907547 178 22884ft 473kts
12-Mar-19 18:40 38.904015 -119.885580 178 24210ft 487kts
12-Mar-19 18:41 38.768086 -119.863198 179 25439ft 499kts
12-Mar-19 18:42 38.628697 -119.840320 179 26503ft 507kts
12-Mar-19 18:43 38.488539 -119.817411 180 27427ft 509kts
12-Mar-19 18:44 38.347983 -119.794521 180 28375ft 510kts
12-Mar-19 18:45 38.207508 -119.771738 181 29456ft 507kts
12-Mar-19 18:46 38.067627 -119.749141 181 30438ft 507kts
12-Mar-19 18:47 37.927253 -119.726478 182 30985ft 517kts
12-Mar-19 18:48 37.782375 -119.703328 182 31615ft 525kts
12-Mar-19 18:49 37.637351 -119.680202 182 32469ft 526kts
12-Mar-19 18:50 37.492633 -119.657215 182 33410ft 524kts
12-Mar-19 18:51 37.347366 -119.633889 182 34199ft 525kts
12-Mar-19 18:52 37.202686 -119.610933 182 34866ft 526kts
12-Mar-19 18:53 37.058550 -119.595125 190 34886ft 511kts
12-Mar-19 18:54 36.916715 -119.598421 190 34896ft 511kts
12-Mar-19 18:55 36.774313 -119.601110 190 34899ft 511kts
12-Mar-19 18:56 36.632038 -119.603610 190 34892ft 511kts
12-Mar-19 18:57 36.489964 -119.606059 190 34882ft 510kts
12-Mar-19 18:58 36.347758 -119.608494 190 34880ft 512kts
12-Mar-19 18:59 36.205277 -119.610928 190 34878ft 512kts
12-Mar-19 19:00 36.062681 -119.613346 190 34877ft 512kts
12-Mar-19 19:01 35.924155 -119.634723 207 34882ft 492kts
12-Mar-19 19:02 35.793578 -119.685176 207 34882ft 492kts
12-Mar-19 19:03 35.662252 -119.734028 205 34876ft 496kts
12-Mar-19 19:04 35.525530 -119.767483 201 34685ft 496kts
12-Mar-19 19:05 35.391676 -119.799459 201 32075ft 492kts
12-Mar-19 19:06 35.252142 -119.793081 161 30588ft 546kts
12-Mar-19 19:07 35.130248 -119.680503 142 29212ft 553kts
12-Mar-19 19:08 35.010259 -119.564188 145 27855ft 546kts
12-Mar-19 19:09 34.890721 -119.454056 145 26553ft 522kts
12-Mar-19 19:10 34.778333 -119.353807 145 25246ft 479kts
12-Mar-19 19:11 34.672367 -119.260628 146 23679ft 463kts
12-Mar-19 19:12 34.568830 -119.171129 146 21944ft 451kts
12-Mar-19 19:13 34.476162 -119.089208 144 20118ft 440kts
12-Mar-19 19:14 34.378341 -119.003822 145 18199ft 427kts
12-Mar-19 19:15 34.285622 -118.921245 143 16975ft 391kts
12-Mar-19 19:16 34.201583 -118.844331 142 15629ft 369kts
12-Mar-19 19:17 34.122709 -118.765980 135 13633ft 365kts
12-Mar-19 19:18 34.049372 -118.685034 134 11625ft 335kts
12-Mar-19 19:19 34.022143 -118.590265 92 9616ft 285kts
12-Mar-19 19:20 34.014182 -118.499068 95 7847ft 263kts
12-Mar-19 19:21 34.017177 -118.414129 76 6789ft 248kts
12-Mar-19 19:22 34.030121 -118.332661 82 5990ft 244kts
12-Mar-19 19:23 34.037557 -118.250721 83 5345ft 246kts
12-Mar-19 19:24 34.041922 -118.170561 113 4304ft 235kts
12-Mar-19 19:25 33.992974 -118.173547 231 2622ft 220kts
12-Mar-19 19:26 33.968824 -118.233164 262 2507ft 192kts
12-Mar-19 19:27 33.962977 -118.296263 261 1853ft 185kts
12-Mar-19 19:28 33.957299 -118.352046 263 935ft 150kts
12-Mar-19 19:29 33.952681 -118.396970 263 192ft 123kts
12-Mar-19 19:30 33.950300 -118.418109 237 134ft 17kts
12-Mar-19 19:31 33.947971 -118.421590 230 134ft 13kts
12-Mar-19 19:32 33.947572 -118.422173 226 134ft 0kts
12-Mar-19 19:33 33.947571 -118.422174 226 134ft 0kts
12-Mar-19 19:34 33.947005 -118.422269 90 134ft 8kts
12-Mar-19 19:35 33.947613 -118.416463 82 134ft 19kts
12-Mar-19 19:36 33.948219 -118.410696 82 134ft 15kts
12-Mar-19 19:37 33.948674 -118.406381 84 134ft 9kts
12-Mar-19 19:38 33.946602 -118.405470 90 134ft 8kts
12-Mar-19 19:39 33.946638 -118.404651 84 134ft 0kts

Navigation Log

Ident Type
Flight plan parsing failed, navigation log unavailable